createdAt,value
2022-12-27T00:01:25.516Z,97797.16
2022-12-27T00:03:52.224Z,97799.13
2022-12-27T00:06:19.106Z,97778.00
2022-12-27T00:08:45.778Z,97777.22
2022-12-27T00:11:12.598Z,97782.34
2022-12-27T00:13:39.282Z,97800.22
2022-12-27T00:16:05.983Z,97805.22
2022-12-27T00:18:32.650Z,97808.31
2022-12-27T00:20:59.301Z,97812.44
2022-12-27T00:23:25.998Z,97816.31
2022-12-27T00:25:52.647Z,97810.28
2022-12-27T00:28:19.314Z,97799.75
2022-12-27T00:30:45.955Z,97807.28
2022-12-27T00:33:12.608Z,97808.94
2022-12-27T00:35:39.282Z,97819.56
2022-12-27T00:38:05.950Z,97823.66
2022-12-27T00:40:32.651Z,97824.78
2022-12-27T00:42:59.383Z,97820.00
2022-12-27T00:45:26.064Z,97823.22
2022-12-27T00:47:52.801Z,97834.31
2022-12-27T00:50:19.514Z,97841.28
2022-12-27T00:52:46.183Z,97838.34
2022-12-27T00:55:12.909Z,97835.13
2022-12-27T00:57:40.052Z,97829.22
2022-12-27T01:00:10.363Z,97830.91
2022-12-27T01:02:37.393Z,97827.38
2022-12-27T01:05:04.285Z,97831.97
2022-12-27T01:07:30.993Z,97837.00
2022-12-27T01:09:57.680Z,97834.34
2022-12-27T01:12:24.597Z,97837.78
2022-12-27T01:14:51.426Z,97840.53
2022-12-27T01:17:18.089Z,97832.34
2022-12-27T01:19:44.729Z,97836.75
2022-12-27T01:22:11.570Z,97840.06
2022-12-27T01:24:38.266Z,97842.03
2022-12-27T01:27:04.959Z,97845.44
2022-12-27T01:29:31.725Z,97846.97
2022-12-27T01:31:58.404Z,97842.06
2022-12-27T01:34:25.355Z,97842.41
2022-12-27T01:36:52.067Z,97852.22
2022-12-27T01:39:18.736Z,97851.88
2022-12-27T01:41:45.395Z,97849.22
2022-12-27T01:44:12.119Z,97853.50
2022-12-27T01:46:38.818Z,97852.69
2022-12-27T01:49:05.470Z,97859.41
2022-12-27T01:51:32.156Z,97858.75
2022-12-27T01:53:58.824Z,97863.69
2022-12-27T01:56:25.519Z,97868.75
2022-12-27T01:58:52.182Z,97865.09
2022-12-27T02:01:18.863Z,97864.28
2022-12-27T02:03:45.643Z,97861.84
2022-12-27T02:06:12.297Z,97864.78
2022-12-27T02:08:38.964Z,97874.75
2022-12-27T02:11:05.726Z,97877.06
2022-12-27T02:13:32.400Z,97879.03
2022-12-27T02:15:59.130Z,97880.66
2022-12-27T02:18:25.815Z,97873.47
2022-12-27T02:20:52.448Z,97879.34
2022-12-27T02:23:19.154Z,97879.84
2022-12-27T02:25:45.899Z,97883.91
2022-12-27T02:28:12.634Z,97878.09
2022-12-27T02:30:39.339Z,97889.09
2022-12-27T02:33:06.037Z,97881.19
2022-12-27T02:35:32.717Z,97884.34
2022-12-27T02:37:59.423Z,97883.88
2022-12-27T02:40:26.066Z,97896.13
2022-12-27T02:42:52.978Z,97890.78
2022-12-27T02:45:19.643Z,97901.94
2022-12-27T02:47:46.369Z,97900.50
2022-12-27T02:50:13.025Z,97909.06
2022-12-27T02:52:39.854Z,97903.16
2022-12-27T02:55:06.572Z,97899.63
2022-12-27T02:57:33.257Z,97906.00
2022-12-27T02:59:59.891Z,97914.38
2022-12-27T03:02:26.687Z,97917.88
2022-12-27T03:04:53.470Z,97920.56
2022-12-27T03:07:20.323Z,97920.38
2022-12-27T03:09:46.948Z,97922.84
2022-12-27T03:12:13.687Z,97934.50
2022-12-27T03:14:40.388Z,97942.66
2022-12-27T03:17:07.259Z,97934.91
2022-12-27T03:19:33.966Z,97932.44
2022-12-27T03:22:00.579Z,97933.75
2022-12-27T03:24:27.216Z,97944.91
2022-12-27T03:26:53.908Z,97944.38
2022-12-27T03:29:20.610Z,97935.69
2022-12-27T03:31:47.289Z,97942.41
2022-12-27T03:34:13.930Z,97933.94
2022-12-27T03:36:40.566Z,97948.97
2022-12-27T03:39:07.269Z,97955.38
2022-12-27T03:41:33.944Z,97968.88
2022-12-27T03:44:00.577Z,97984.97
2022-12-27T03:46:27.268Z,97981.41
2022-12-27T03:48:53.985Z,97986.59
2022-12-27T03:51:20.882Z,97973.47
2022-12-27T03:53:47.828Z,97973.34
2022-12-27T03:56:14.515Z,97967.72
2022-12-27T03:58:41.148Z,97973.69
2022-12-27T04:01:07.969Z,97973.56
2022-12-27T04:03:34.708Z,97970.97
2022-12-27T04:06:01.439Z,97965.41
2022-12-27T04:08:28.137Z,97955.78
2022-12-27T04:10:54.764Z,97959.75
2022-12-27T04:13:21.436Z,97954.41
2022-12-27T04:15:48.172Z,97956.38
2022-12-27T04:18:14.835Z,97964.50
2022-12-27T04:20:41.482Z,97964.91
2022-12-27T04:23:08.205Z,97972.25
2022-12-27T04:25:34.918Z,97976.31
2022-12-27T04:28:01.610Z,97975.03
2022-12-27T04:30:28.267Z,97974.56
2022-12-27T04:32:54.924Z,97978.63
2022-12-27T04:35:21.535Z,97984.31
2022-12-27T04:37:48.231Z,97991.94
2022-12-27T04:40:14.904Z,97997.41
2022-12-27T04:42:41.542Z,98000.06
2022-12-27T04:45:14.862Z,98005.94
2022-12-27T04:50:26.229Z,97998.53
2022-12-27T04:52:52.891Z,98001.84
2022-12-27T04:55:19.642Z,98002.19
2022-12-27T04:57:46.310Z,98008.22
2022-12-27T05:00:12.957Z,98009.22
2022-12-27T05:02:39.773Z,98014.53
2022-12-27T05:05:06.571Z,98020.06
2022-12-27T05:07:33.255Z,98019.75
2022-12-27T05:09:59.925Z,98028.75
2022-12-27T05:12:26.546Z,98029.97
2022-12-27T05:14:53.252Z,98039.69
2022-12-27T05:17:19.887Z,98037.81
2022-12-27T05:19:46.681Z,98054.78
2022-12-27T05:22:13.326Z,98051.03
2022-12-27T05:24:40.029Z,98057.56
2022-12-27T05:27:06.730Z,98065.03
2022-12-27T05:29:33.470Z,98061.41
2022-12-27T05:32:00.146Z,98062.88
2022-12-27T05:34:26.836Z,98074.94
2022-12-27T05:36:53.555Z,98065.75
2022-12-27T05:39:20.190Z,98078.13
2022-12-27T05:41:46.904Z,98072.38
2022-12-27T05:44:13.626Z,98084.63
2022-12-27T05:46:40.354Z,98082.59
2022-12-27T05:49:07.061Z,98088.47
2022-12-27T05:51:33.713Z,98089.56
2022-12-27T05:54:00.373Z,98100.78
2022-12-27T05:56:27.001Z,98106.91
2022-12-27T05:58:53.647Z,98103.28
2022-12-27T06:01:20.444Z,98117.94
2022-12-27T06:03:47.136Z,98097.94
2022-12-27T06:06:13.810Z,98096.41
2022-12-27T06:08:40.506Z,98105.91
2022-12-27T06:11:07.151Z,98104.22
2022-12-27T06:13:33.830Z,98110.59
2022-12-27T06:16:00.564Z,98102.97
2022-12-27T06:18:27.338Z,98112.63
2022-12-27T06:20:54.023Z,98114.00
2022-12-27T06:23:20.665Z,98122.25
2022-12-27T06:25:47.383Z,98127.56
2022-12-27T06:28:14.037Z,98124.56
2022-12-27T06:30:40.787Z,98123.25
2022-12-27T06:33:07.429Z,98133.47
2022-12-27T06:35:34.193Z,98134.16
2022-12-27T06:38:00.858Z,98143.19
2022-12-27T06:40:27.529Z,98147.69
2022-12-27T06:42:54.209Z,98151.41
2022-12-27T06:45:20.847Z,98159.25
2022-12-27T06:47:47.522Z,98165.00
2022-12-27T06:50:14.212Z,98167.16
2022-12-27T06:52:40.926Z,98170.56
2022-12-27T06:55:07.582Z,98186.78
2022-12-27T06:57:34.273Z,98195.47
2022-12-27T07:00:00.947Z,98197.00
2022-12-27T07:02:27.750Z,98211.50
2022-12-27T07:04:54.470Z,98207.91
2022-12-27T07:07:21.207Z,98207.25
2022-12-27T07:09:47.873Z,98208.00
2022-12-27T07:12:14.596Z,98210.66
2022-12-27T07:14:41.277Z,98205.13
2022-12-27T07:17:07.969Z,98201.94
2022-12-27T07:19:34.643Z,98206.06
2022-12-27T07:22:01.304Z,98205.13
2022-12-27T07:24:28.041Z,98213.06
2022-12-27T07:26:54.727Z,98220.56
2022-12-27T07:29:21.382Z,98228.09
2022-12-27T07:31:48.215Z,98230.69
2022-12-27T07:34:14.969Z,98224.47
2022-12-27T07:36:41.637Z,98228.16
2022-12-27T07:39:08.326Z,98228.44
2022-12-27T07:41:35.021Z,98222.47
2022-12-27T07:44:01.705Z,98217.22
2022-12-27T07:46:28.437Z,98211.91
2022-12-27T07:48:55.085Z,98227.25
2022-12-27T07:51:21.799Z,98223.75
2022-12-27T07:53:48.459Z,98239.75
2022-12-27T07:56:18.882Z,98236.53
2022-12-27T07:58:48.480Z,98230.00
2022-12-27T08:01:15.250Z,98245.94
2022-12-27T08:03:42.104Z,98247.25
2022-12-27T08:06:08.953Z,98247.47
2022-12-27T08:08:35.598Z,98241.06
2022-12-27T08:11:05.760Z,98246.84
2022-12-27T08:13:32.671Z,98242.91
2022-12-27T08:15:59.379Z,98250.00
2022-12-27T08:18:26.042Z,98238.81
2022-12-27T08:20:52.681Z,98250.63
2022-12-27T08:23:19.341Z,98242.25
2022-12-27T08:25:48.716Z,98252.59
2022-12-27T08:28:15.865Z,98250.28
2022-12-27T08:30:42.586Z,98254.88
2022-12-27T08:33:09.246Z,98254.75
2022-12-27T08:35:52.808Z,98260.69
2022-12-27T08:38:20.667Z,98261.66
2022-12-27T08:40:47.351Z,98274.59
2022-12-27T08:43:14.033Z,98272.16
2022-12-27T08:45:40.684Z,98283.97
2022-12-27T08:48:07.461Z,98304.53
2022-12-27T08:50:34.261Z,98298.59
2022-12-27T08:53:00.921Z,98304.81
2022-12-27T08:55:27.626Z,98300.81
2022-12-27T08:57:54.412Z,98298.34
2022-12-27T09:00:21.065Z,98308.44
2022-12-27T09:02:47.804Z,98311.09
2022-12-27T09:05:14.571Z,98312.25
2022-12-27T09:07:41.256Z,98304.59
2022-12-27T09:10:07.933Z,98302.78
2022-12-27T09:12:34.617Z,98294.81
2022-12-27T09:15:01.366Z,98307.00
2022-12-27T09:17:28.028Z,98313.28
2022-12-27T09:19:54.707Z,98310.41
2022-12-27T09:22:21.410Z,98314.19
2022-12-27T09:24:48.109Z,98299.66
2022-12-27T09:27:14.780Z,98299.72
2022-12-27T09:29:46.397Z,98288.06
2022-12-27T09:32:14.895Z,98289.09
2022-12-27T09:34:41.624Z,98299.00
2022-12-27T09:37:08.310Z,98294.38
2022-12-27T09:39:34.985Z,98280.41
2022-12-27T09:44:48.319Z,98268.66
2022-12-27T09:47:15.028Z,98262.25
2022-12-27T09:49:41.707Z,98263.66
2022-12-27T09:52:08.413Z,98252.47
2022-12-27T09:54:35.094Z,98245.84
2022-12-27T09:57:19.390Z,98255.09
2022-12-27T09:59:46.763Z,98237.88
2022-12-27T10:02:13.482Z,98230.94
2022-12-27T10:05:17.903Z,98240.44
2022-12-27T10:07:26.896Z,98256.59
2022-12-27T10:10:15.006Z,98264.69
2022-12-27T10:12:41.683Z,98276.09
2022-12-27T10:15:08.321Z,98269.28
2022-12-27T10:17:34.969Z,98269.00
2022-12-27T10:20:01.641Z,98257.00
2022-12-27T10:22:28.271Z,98259.88
2022-12-27T10:24:56.477Z,98260.63
2022-12-27T10:27:23.312Z,98267.28
2022-12-27T10:29:50.004Z,98264.84
2022-12-27T10:32:16.630Z,98259.66
2022-12-27T10:34:43.278Z,98259.75
2022-12-27T10:37:09.951Z,98266.56
2022-12-27T10:39:36.622Z,98252.66
2022-12-27T10:42:03.374Z,98256.69
2022-12-27T10:44:30.083Z,98247.91
2022-12-27T10:46:56.989Z,98246.59
2022-12-27T10:49:23.767Z,98240.66
2022-12-27T10:51:50.604Z,98231.38
2022-12-27T10:54:17.303Z,98229.25
2022-12-27T10:56:44.017Z,98224.81
2022-12-27T10:59:10.662Z,98223.66
2022-12-27T11:01:37.575Z,98219.97
2022-12-27T11:04:04.348Z,98228.53
2022-12-27T11:06:30.992Z,98229.34
2022-12-27T11:08:57.841Z,98221.59
2022-12-27T11:11:24.688Z,98212.63
2022-12-27T11:13:51.420Z,98208.84
2022-12-27T11:16:18.160Z,98204.97
2022-12-27T11:18:44.892Z,98208.53
2022-12-27T11:21:20.066Z,98217.22
2022-12-27T11:23:51.288Z,98222.56
2022-12-27T11:26:17.928Z,98233.03
2022-12-27T11:28:44.567Z,98231.78
2022-12-27T11:31:11.361Z,98221.94
2022-12-27T11:33:38.077Z,98228.84
2022-12-27T11:36:04.772Z,98234.13
2022-12-27T11:38:31.480Z,98234.81
2022-12-27T11:40:58.143Z,98223.41
2022-12-27T11:43:24.841Z,98230.66
2022-12-27T11:45:51.541Z,98229.81
2022-12-27T11:48:18.278Z,98227.78
2022-12-27T11:50:44.995Z,98221.19
2022-12-27T11:53:11.688Z,98214.72
2022-12-27T11:55:38.349Z,98220.34
2022-12-27T11:58:05.035Z,98208.81
2022-12-27T12:00:31.851Z,98222.69
2022-12-27T12:02:58.666Z,98223.22
2022-12-27T12:05:25.440Z,98227.41
2022-12-27T12:07:53.095Z,98225.38
2022-12-27T12:10:19.796Z,98220.47
2022-12-27T12:12:46.436Z,98222.22
2022-12-27T12:15:13.126Z,98219.56
2022-12-27T12:17:39.838Z,98222.81
2022-12-27T12:20:06.515Z,98223.53
2022-12-27T12:22:33.226Z,98229.00
2022-12-27T12:24:59.869Z,98230.84
2022-12-27T12:27:26.571Z,98225.03
2022-12-27T12:29:54.537Z,98222.66
2022-12-27T12:32:21.181Z,98224.13
2022-12-27T12:34:47.840Z,98224.00
2022-12-27T12:37:14.463Z,98215.69
2022-12-27T12:39:41.155Z,98208.41
2022-12-27T12:42:07.825Z,98210.41
2022-12-27T12:44:41.141Z,98212.09
2022-12-27T12:47:09.397Z,98220.31
2022-12-27T12:49:36.111Z,98203.41
2022-12-27T12:52:02.818Z,98216.66
2022-12-27T12:54:29.507Z,98209.16
2022-12-27T12:56:56.224Z,98216.25
2022-12-27T12:59:22.879Z,98218.91
2022-12-27T13:01:51.185Z,98213.59
2022-12-27T13:04:17.996Z,98221.19
2022-12-27T13:06:45.037Z,98220.97
2022-12-27T13:09:11.696Z,98231.59
2022-12-27T13:11:38.356Z,98233.44
2022-12-27T13:14:04.992Z,98235.25
2022-12-27T13:16:31.668Z,98239.16
2022-12-27T13:18:58.387Z,98230.81
2022-12-27T13:21:25.116Z,98244.09
2022-12-27T13:23:51.835Z,98233.06
2022-12-27T13:26:18.475Z,98242.66
2022-12-27T13:28:45.163Z,98239.78
2022-12-27T13:31:11.907Z,98242.22
2022-12-27T13:33:38.647Z,98238.28
2022-12-27T13:36:05.338Z,98228.84
2022-12-27T13:38:32.038Z,98239.91
2022-12-27T13:40:58.716Z,98240.78
2022-12-27T13:43:25.403Z,98238.09
2022-12-27T13:45:52.135Z,98245.03
2022-12-27T13:48:18.965Z,98243.03
2022-12-27T13:50:45.611Z,98240.81
2022-12-27T13:53:12.263Z,98245.25
2022-12-27T13:55:38.964Z,98249.94
2022-12-27T13:58:05.666Z,98245.97
2022-12-27T14:00:32.332Z,98257.22
2022-12-27T14:02:59.148Z,98258.03
2022-12-27T14:05:25.931Z,98260.03
2022-12-27T14:07:52.663Z,98266.28
2022-12-27T14:10:19.349Z,98278.75
2022-12-27T14:12:46.107Z,98277.91
2022-12-27T14:15:12.764Z,98282.94
2022-12-27T14:17:39.421Z,98289.50
2022-12-27T14:20:06.227Z,98294.09
2022-12-27T14:22:32.937Z,98294.09
2022-12-27T14:24:59.703Z,98309.16
2022-12-27T14:27:26.401Z,98317.28
2022-12-27T14:29:53.107Z,98322.88
2022-12-27T14:32:19.834Z,98321.59
2022-12-27T14:34:46.558Z,98327.25
2022-12-27T14:37:13.295Z,98331.97
2022-12-27T14:39:39.949Z,98338.53
2022-12-27T14:42:06.604Z,98343.75
2022-12-27T14:44:33.239Z,98344.06
2022-12-27T14:46:59.937Z,98350.06
2022-12-27T14:49:26.697Z,98360.91
2022-12-27T14:52:04.438Z,98370.72
2022-12-27T14:54:35.371Z,98363.94
2022-12-27T14:57:02.102Z,98364.25
2022-12-27T14:59:28.804Z,98355.09
2022-12-27T15:01:55.656Z,98359.91
2022-12-27T15:04:22.478Z,98361.59
2022-12-27T15:06:49.244Z,98371.97
2022-12-27T15:09:15.965Z,98370.06
2022-12-27T15:11:42.677Z,98382.34
2022-12-27T15:14:09.388Z,98383.53
2022-12-27T15:16:36.139Z,98387.72
2022-12-27T15:19:02.844Z,98403.81
2022-12-27T15:21:29.582Z,98405.91
2022-12-27T15:23:56.235Z,98415.63
2022-12-27T15:26:22.953Z,98413.19
2022-12-27T15:28:49.669Z,98419.88
2022-12-27T15:31:16.378Z,98424.75
2022-12-27T15:33:43.109Z,98430.63
2022-12-27T15:36:09.814Z,98435.94
2022-12-27T15:38:36.840Z,98436.47
2022-12-27T15:41:03.555Z,98442.28
2022-12-27T15:43:30.199Z,98446.50
2022-12-27T15:45:56.931Z,98455.19
2022-12-27T15:48:23.577Z,98461.25
2022-12-27T15:50:50.274Z,98458.78
2022-12-27T15:53:16.939Z,98460.13
2022-12-27T15:55:43.624Z,98464.25
2022-12-27T15:58:10.365Z,98469.34
2022-12-27T16:00:37.035Z,98469.00
2022-12-27T16:03:03.921Z,98466.19
2022-12-27T16:05:30.819Z,98469.00
2022-12-27T16:07:57.510Z,98475.28
2022-12-27T16:10:24.146Z,98469.84
2022-12-27T16:12:50.779Z,98485.00
2022-12-27T16:15:17.522Z,98486.28
2022-12-27T16:17:44.186Z,98486.47
2022-12-27T16:20:10.897Z,98499.31
2022-12-27T16:22:37.585Z,98495.53
2022-12-27T16:25:04.251Z,98508.34
2022-12-27T16:27:30.919Z,98501.78
2022-12-27T16:29:57.753Z,98509.19
2022-12-27T16:32:24.425Z,98504.25
2022-12-27T16:34:51.082Z,98510.34
2022-12-27T16:37:17.700Z,98510.16
2022-12-27T16:39:44.541Z,98509.50
2022-12-27T16:42:11.267Z,98509.03
2022-12-27T16:44:38.586Z,98511.97
2022-12-27T16:47:05.428Z,98520.84
2022-12-27T16:49:32.141Z,98513.75
2022-12-27T16:51:58.877Z,98512.38
2022-12-27T16:54:25.550Z,98518.63
2022-12-27T16:56:52.215Z,98511.34
2022-12-27T16:59:19.042Z,98512.50
2022-12-27T17:01:45.798Z,98518.75
2022-12-27T17:04:12.571Z,98521.53
2022-12-27T17:06:39.225Z,98527.84
2022-12-27T17:09:05.846Z,98533.00
2022-12-27T17:11:32.517Z,98538.78
2022-12-27T17:13:59.259Z,98544.78
2022-12-27T17:16:26.047Z,98535.53
2022-12-27T17:18:52.797Z,98541.56
2022-12-27T17:21:21.285Z,98549.19
2022-12-27T17:23:51.419Z,98542.19
2022-12-27T17:26:18.149Z,98548.78
2022-12-27T17:28:44.799Z,98551.88
2022-12-27T17:31:11.533Z,98555.16
2022-12-27T17:33:38.305Z,98550.13
2022-12-27T17:36:05.166Z,98557.34
2022-12-27T17:38:31.894Z,98557.16
2022-12-27T17:40:58.533Z,98562.03
2022-12-27T17:43:25.241Z,98563.03
2022-12-27T17:45:51.923Z,98557.78
2022-12-27T17:48:18.557Z,98565.09
2022-12-27T17:50:45.234Z,98562.34
2022-12-27T17:53:14.689Z,98570.78
2022-12-27T17:55:41.588Z,98569.72
2022-12-27T17:58:08.284Z,98569.81
2022-12-27T18:00:35.028Z,98579.44
2022-12-27T18:03:01.755Z,98589.75
2022-12-27T18:05:28.447Z,98591.97
2022-12-27T18:07:55.112Z,98598.34
2022-12-27T18:10:21.865Z,98598.03
2022-12-27T18:12:48.614Z,98612.06
2022-12-27T18:15:15.270Z,98612.25
2022-12-27T18:17:41.928Z,98619.19
2022-12-27T18:20:08.655Z,98628.06
2022-12-27T18:22:35.373Z,98626.44
2022-12-27T18:25:02.083Z,98625.44
2022-12-27T18:27:28.799Z,98630.72
2022-12-27T18:29:57.217Z,98634.22
2022-12-27T18:32:23.868Z,98629.84
2022-12-27T18:34:50.607Z,98624.94
2022-12-27T18:37:17.274Z,98634.63
2022-12-27T18:39:44.026Z,98635.53
2022-12-27T18:42:10.770Z,98637.91
2022-12-27T18:44:37.672Z,98637.78
2022-12-27T18:47:04.408Z,98632.97
2022-12-27T18:49:31.065Z,98635.69
2022-12-27T18:51:57.787Z,98639.03
2022-12-27T18:54:24.547Z,98636.94
2022-12-27T18:56:51.206Z,98643.44
2022-12-27T18:59:17.861Z,98650.16
2022-12-27T19:01:44.677Z,98652.53
2022-12-27T19:04:11.396Z,98655.16
2022-12-27T19:06:38.089Z,98640.41
2022-12-27T19:09:04.728Z,98647.56
2022-12-27T19:11:36.199Z,98650.47
2022-12-27T19:14:03.211Z,98646.06
2022-12-27T19:16:29.960Z,98650.06
2022-12-27T19:18:56.704Z,98646.91
2022-12-27T19:21:23.412Z,98644.41
2022-12-27T19:23:50.040Z,98653.66
2022-12-27T19:26:16.746Z,98649.66
2022-12-27T19:28:43.438Z,98649.53
2022-12-27T19:31:10.293Z,98655.44
2022-12-27T19:33:37.099Z,98652.13
2022-12-27T19:36:03.789Z,98654.06
2022-12-27T19:38:30.545Z,98650.22
2022-12-27T19:41:03.019Z,98646.78
2022-12-27T19:43:30.664Z,98651.03
2022-12-27T19:45:57.387Z,98652.28
2022-12-27T19:48:24.141Z,98647.16
2022-12-27T19:50:50.861Z,98649.50
2022-12-27T19:53:17.620Z,98643.47
2022-12-27T19:55:44.368Z,98654.19
2022-12-27T19:58:11.090Z,98653.91
2022-12-27T20:00:37.824Z,98663.53
2022-12-27T20:03:04.575Z,98655.41
2022-12-27T20:06:12.411Z,98652.53
2022-12-27T20:08:18.288Z,98645.50
2022-12-27T20:10:44.991Z,98654.97
2022-12-27T20:13:11.776Z,98648.59
2022-12-27T20:15:38.475Z,98649.84
2022-12-27T20:18:07.332Z,98652.88
2022-12-27T20:20:34.080Z,98660.09
2022-12-27T20:23:00.909Z,98655.97
2022-12-27T20:25:27.594Z,98654.53
2022-12-27T20:27:54.369Z,98653.94
2022-12-27T20:30:21.215Z,98650.97
2022-12-27T20:32:47.936Z,98654.09
2022-12-27T20:35:14.673Z,98654.09
2022-12-27T20:37:41.380Z,98646.63
2022-12-27T20:40:08.187Z,98645.38
2022-12-27T20:42:34.849Z,98641.00
2022-12-27T20:45:01.577Z,98639.47
2022-12-27T20:47:28.315Z,98644.78
2022-12-27T20:49:54.965Z,98639.31
2022-12-27T20:52:25.770Z,98644.72
2022-12-27T20:54:57.425Z,98646.63
2022-12-27T20:57:24.172Z,98638.03
2022-12-27T20:59:50.872Z,98634.59
2022-12-27T21:02:17.668Z,98638.84
2022-12-27T21:04:44.422Z,98643.56
2022-12-27T21:07:13.245Z,98644.34
2022-12-27T21:09:39.946Z,98643.22
2022-12-27T21:12:06.668Z,98649.50
2022-12-27T21:14:33.399Z,98644.44
2022-12-27T21:17:00.117Z,98644.19
2022-12-27T21:19:26.831Z,98642.41
2022-12-27T21:21:53.508Z,98647.75
2022-12-27T21:24:20.221Z,98641.59
2022-12-27T21:26:46.890Z,98639.63
2022-12-27T21:29:13.549Z,98633.31
2022-12-27T21:31:40.179Z,98633.69
2022-12-27T21:34:06.844Z,98631.13
2022-12-27T21:36:33.587Z,98637.91
2022-12-27T21:39:00.241Z,98642.19
2022-12-27T21:41:26.907Z,98642.41
2022-12-27T21:43:53.548Z,98641.06
2022-12-27T21:46:20.364Z,98641.53
2022-12-27T21:48:47.221Z,98637.44
2022-12-27T21:51:14.012Z,98641.81
2022-12-27T21:53:40.706Z,98649.25
2022-12-27T21:56:07.437Z,98654.06
2022-12-27T21:58:34.076Z,98650.38
2022-12-27T22:01:05.057Z,98637.72
2022-12-27T22:03:35.475Z,98642.81
2022-12-27T22:06:02.418Z,98640.09
2022-12-27T22:08:29.322Z,98639.06
2022-12-27T22:10:55.998Z,98637.78
2022-12-27T22:13:22.669Z,98644.34
2022-12-27T22:15:49.416Z,98632.41
2022-12-27T22:18:17.092Z,98635.72
2022-12-27T22:20:47.048Z,98639.31
2022-12-27T22:23:13.849Z,98633.31
2022-12-27T22:25:40.548Z,98634.66
2022-12-27T22:28:07.189Z,98632.97
2022-12-27T22:30:34.027Z,98632.03
2022-12-27T22:33:00.777Z,98630.53
2022-12-27T22:35:27.478Z,98618.16
2022-12-27T22:37:54.188Z,98625.38
2022-12-27T22:40:30.577Z,98626.50
2022-12-27T22:42:57.921Z,98625.44
2022-12-27T22:45:24.572Z,98621.41
2022-12-27T22:47:51.226Z,98623.00
2022-12-27T22:50:17.981Z,98620.13
2022-12-27T22:52:44.633Z,98616.69
2022-12-27T22:55:11.320Z,98622.91
2022-12-27T22:57:38.045Z,98627.53
2022-12-27T23:00:04.730Z,98622.56
2022-12-27T23:02:31.545Z,98621.09
2022-12-27T23:04:58.284Z,98621.44
2022-12-27T23:08:06.057Z,98624.75
2022-12-27T23:10:11.606Z,98618.31
2022-12-27T23:12:38.314Z,98615.28
2022-12-27T23:15:05.045Z,98612.81
2022-12-27T23:17:31.709Z,98603.59
2022-12-27T23:19:58.362Z,98610.56
2022-12-27T23:22:25.075Z,98601.44
2022-12-27T23:24:51.726Z,98607.44
2022-12-27T23:27:18.453Z,98603.34
2022-12-27T23:29:45.152Z,98603.22
2022-12-27T23:32:11.840Z,98599.09
2022-12-27T23:34:38.518Z,98599.66
2022-12-27T23:37:05.161Z,98594.59
2022-12-27T23:39:31.855Z,98593.03
2022-12-27T23:41:58.487Z,98593.16
2022-12-27T23:44:34.126Z,98587.38
2022-12-27T23:47:01.567Z,98579.34
2022-12-27T23:49:28.415Z,98574.91
2022-12-27T23:51:55.097Z,98572.88
2022-12-27T23:54:21.916Z,98569.50
2022-12-27T23:56:48.577Z,98568.88
2022-12-27T23:59:15.216Z,98567.66
